Accueil
METAR-TAF:

METAR-TAF

Aéroports :

Jersey,

Aéroport de Jersey

latitude: 49-13N, longitude: 002-12W, altitude: 84 m

Observation

Le bulletin a été fait il y a 13 minutes, à 00:20 UTC
Vent 13 kt de est/sud-est
Température 0°C
Humidité 74%
Pression 1015 hPa
Visibilité 10 km ou plus
pas de nuages en-dessous de 1500 mètres et pas de cumulonimbus.

METAR: EGJJ 240020Z AUTO 11013KT CAVOK 00/M04 Q1015

Heure: 00:33 (00:33 UTC)

Prévision

Le bulletin a été fait il y a 1 heure et 31 minutes, à 23:02 UTC
Prévision valable du 24 à 00 UTC au 24 à 09 UTC
Vent 10 kt de est/nord-est
Visibilité 10 km ou plus
pas de nuages en-dessous de 1500 mètres et pas de cumulonimbus.

TAF: EGJJ 232302Z 2400/2409 07010KT CAVOK

Observations et prévisions météorologiques de plus de 4000 aéroports (messages METAR et TAF).

Les stations disponibles sont représentées par des disques jaunes et rouges sur la carte.

Passer la souris dessus pour voir le nom de la station.

Cliquer dessus pour voir les observations et prévisions météorologiques.

Pour changer de carte: cliquez sur les boutons verts avec une croix noire pour zoomer, sur le bouton vert avec un tiret pour effectuer un zoom arrière, ou sur les flèches vertes pour les cartes adjacentes.


METAR-TAF: